createdAt,value
2017-06-30T00:00:21.945Z,1000.28
2017-06-30T00:00:47.546Z,1000.26
2017-06-30T00:01:13.138Z,1000.31
2017-06-30T00:01:38.705Z,1000.32
2017-06-30T00:02:04.335Z,1000.28
2017-06-30T00:02:29.899Z,1000.27
2017-06-30T00:02:55.460Z,1000.3
2017-06-30T00:03:21.037Z,1000.3
2017-06-30T00:03:46.604Z,1000.28
2017-06-30T00:04:12.158Z,1000.32
2017-06-30T00:04:37.713Z,1000.32
2017-06-30T00:05:03.279Z,1000.29
2017-06-30T00:05:28.837Z,1000.34
2017-06-30T00:05:54.511Z,1000.26
2017-06-30T00:06:20.060Z,1000.31
2017-06-30T00:06:45.601Z,1000.27
2017-06-30T00:08:33.010Z,1000.34
2017-06-30T00:11:13.199Z,1000.38
2017-06-30T00:11:47.063Z,1000.4
2017-06-30T00:12:12.651Z,1000.39
2017-06-30T00:12:38.220Z,1000.42
2017-06-30T00:13:03.880Z,1000.36
2017-06-30T00:13:29.470Z,1000.38
2017-06-30T00:13:55.027Z,1000.37
2017-06-30T00:14:20.608Z,1000.39
2017-06-30T00:14:46.150Z,1000.41
2017-06-30T00:15:11.711Z,1000.38
2017-06-30T00:15:37.314Z,1000.46
2017-06-30T00:16:02.885Z,1000.42
2017-06-30T00:16:28.447Z,1000.38
2017-06-30T00:16:54.037Z,1000.4
2017-06-30T00:17:19.605Z,1000.42
2017-06-30T00:17:45.169Z,1000.47
2017-06-30T00:18:10.724Z,1000.45
2017-06-30T00:18:36.292Z,1000.44
2017-06-30T00:19:01.855Z,1000.46
2017-06-30T00:19:27.432Z,1000.47
2017-06-30T00:19:52.990Z,1000.47
2017-06-30T00:20:18.554Z,1000.5
2017-06-30T00:20:44.176Z,1000.53
2017-06-30T00:21:09.728Z,1000.55
2017-06-30T00:21:35.281Z,1000.58
2017-06-30T00:22:00.850Z,1000.55
2017-06-30T00:22:26.422Z,1000.54
2017-06-30T00:22:51.997Z,1000.55
2017-06-30T00:23:17.548Z,1000.56
2017-06-30T00:23:43.109Z,1000.54
2017-06-30T00:24:08.673Z,1000.58
2017-06-30T00:24:34.230Z,1000.59
2017-06-30T00:24:59.781Z,1000.56
2017-06-30T00:25:25.340Z,1000.57
2017-06-30T00:25:50.900Z,1000.57
2017-06-30T00:26:16.473Z,1000.57
2017-06-30T00:26:42.027Z,1000.6
2017-06-30T00:27:07.598Z,1000.59
2017-06-30T00:27:33.183Z,1000.58
2017-06-30T00:27:58.820Z,1000.6
2017-06-30T00:28:24.377Z,1000.59
2017-06-30T00:28:49.946Z,1000.66
2017-06-30T00:29:15.508Z,1000.63
2017-06-30T00:29:41.080Z,1000.58
2017-06-30T00:30:06.654Z,1000.6
2017-06-30T00:30:32.229Z,1000.65
2017-06-30T00:30:57.795Z,1000.61
2017-06-30T00:31:23.362Z,1000.61
2017-06-30T00:31:48.912Z,1000.62
2017-06-30T00:32:14.474Z,1000.62
2017-06-30T00:32:40.028Z,1000.6
2017-06-30T00:33:05.593Z,1000.58
2017-06-30T00:33:31.149Z,1000.62
2017-06-30T00:33:56.706Z,1000.59
2017-06-30T00:34:22.281Z,1000.6
2017-06-30T00:34:47.882Z,1000.63
2017-06-30T00:35:13.497Z,1000.63
2017-06-30T00:35:39.066Z,1000.62
2017-06-30T00:36:04.681Z,1000.64
2017-06-30T00:36:30.244Z,1000.62
2017-06-30T00:36:55.894Z,1000.6
2017-06-30T00:37:21.520Z,1000.62
2017-06-30T00:37:47.098Z,1000.62
2017-06-30T00:38:12.676Z,1000.62
2017-06-30T00:38:38.339Z,1000.61
2017-06-30T00:39:03.897Z,1000.61
2017-06-30T00:39:29.474Z,1000.63
2017-06-30T00:39:55.037Z,1000.62
2017-06-30T00:40:20.584Z,1000.6
2017-06-30T00:40:46.139Z,1000.59
2017-06-30T00:41:11.686Z,1000.59
2017-06-30T00:41:37.271Z,1000.63
2017-06-30T00:42:02.818Z,1000.61
2017-06-30T00:42:28.373Z,1000.59
2017-06-30T00:42:53.976Z,1000.6
2017-06-30T00:43:19.817Z,1000.6
2017-06-30T00:43:45.381Z,1000.54
2017-06-30T00:44:10.949Z,1000.6
2017-06-30T00:44:36.512Z,1000.57
2017-06-30T00:45:02.063Z,1000.59
2017-06-30T00:45:27.620Z,1000.58
2017-06-30T00:45:53.184Z,1000.6
2017-06-30T00:46:18.741Z,1000.65
2017-06-30T00:46:44.300Z,1000.59
2017-06-30T00:47:09.883Z,1000.66
2017-06-30T00:47:35.444Z,1000.64
2017-06-30T00:48:00.995Z,1000.59
2017-06-30T00:48:26.555Z,1000.6
2017-06-30T00:48:52.127Z,1000.56
2017-06-30T00:49:17.709Z,1000.59
2017-06-30T00:49:43.272Z,1000.59
2017-06-30T00:50:08.819Z,1000.6
2017-06-30T00:50:34.449Z,1000.6
2017-06-30T00:51:00.089Z,1000.6
2017-06-30T00:51:25.664Z,1000.58
2017-06-30T00:51:51.244Z,1000.62
2017-06-30T00:52:16.876Z,1000.57
2017-06-30T00:52:42.449Z,1000.62
2017-06-30T00:53:08.042Z,1000.56
2017-06-30T00:53:33.672Z,1000.58
2017-06-30T00:53:59.309Z,1000.58
2017-06-30T00:54:24.863Z,1000.56
2017-06-30T00:54:50.415Z,1000.56
2017-06-30T00:55:15.978Z,1000.58
2017-06-30T00:55:41.556Z,1000.54
2017-06-30T00:56:07.129Z,1000.56
2017-06-30T00:56:32.673Z,1000.55
2017-06-30T00:56:58.239Z,1000.52
2017-06-30T00:57:23.805Z,1000.55
2017-06-30T00:57:49.427Z,1000.55
2017-06-30T00:58:14.995Z,1000.59
2017-06-30T00:58:40.570Z,1000.53
2017-06-30T00:59:06.181Z,1000.52
2017-06-30T00:59:31.749Z,1000.58
2017-06-30T00:59:57.299Z,1000.53
2017-06-30T01:00:22.881Z,1000.6
2017-06-30T01:00:48.477Z,1000.53
2017-06-30T01:01:14.061Z,1000.54
2017-06-30T01:01:39.605Z,1000.56
2017-06-30T01:02:05.165Z,1000.54
2017-06-30T01:02:30.726Z,1000.54
2017-06-30T01:02:56.306Z,1000.53
2017-06-30T01:03:21.893Z,1000.53
2017-06-30T01:03:47.486Z,1000.53
2017-06-30T01:04:13.098Z,1000.55
2017-06-30T01:04:38.650Z,1000.54
2017-06-30T01:05:04.208Z,1000.53
2017-06-30T01:05:29.848Z,1000.54
2017-06-30T01:05:55.418Z,1000.55
2017-06-30T01:06:20.998Z,1000.57
2017-06-30T01:06:46.566Z,1000.57
2017-06-30T01:07:12.215Z,1000.54
2017-06-30T01:07:37.770Z,1000.54
2017-06-30T01:08:03.336Z,1000.53
2017-06-30T01:08:28.926Z,1000.51
2017-06-30T01:08:54.448Z,1000.5
2017-06-30T01:09:19.998Z,1000.56
2017-06-30T01:09:45.658Z,1000.53
2017-06-30T01:10:11.243Z,1000.53
2017-06-30T01:10:36.801Z,1000.52
2017-06-30T01:11:02.404Z,1000.58
2017-06-30T01:11:27.959Z,1000.57
2017-06-30T01:11:53.525Z,1000.58
2017-06-30T01:12:19.090Z,1000.56
2017-06-30T01:12:44.656Z,1000.55
2017-06-30T01:13:10.244Z,1000.54
2017-06-30T01:13:35.807Z,1000.5
2017-06-30T01:14:01.368Z,1000.55
2017-06-30T01:14:26.931Z,1000.54
2017-06-30T01:14:52.478Z,1000.53
2017-06-30T01:15:18.029Z,1000.56
2017-06-30T01:15:43.666Z,1000.57
2017-06-30T01:16:09.229Z,1000.56
2017-06-30T01:16:34.777Z,1000.56
2017-06-30T01:17:00.351Z,1000.57
2017-06-30T01:17:25.932Z,1000.57
2017-06-30T01:17:51.499Z,1000.61
2017-06-30T01:18:17.071Z,1000.54
2017-06-30T01:18:42.650Z,1000.59
2017-06-30T01:19:08.200Z,1000.58
2017-06-30T01:19:33.850Z,1000.58
2017-06-30T01:19:59.478Z,1000.58
2017-06-30T01:20:25.031Z,1000.56
2017-06-30T01:20:50.578Z,1000.57
2017-06-30T01:21:16.166Z,1000.56
2017-06-30T01:21:41.739Z,1000.61
2017-06-30T01:22:07.300Z,1000.57
2017-06-30T01:22:32.852Z,1000.58
2017-06-30T01:22:58.467Z,1000.59
2017-06-30T01:23:24.031Z,1000.56
2017-06-30T01:23:49.627Z,1000.61
2017-06-30T01:24:15.175Z,1000.59
2017-06-30T01:24:40.753Z,1000.6
2017-06-30T01:25:06.397Z,1000.59
2017-06-30T01:25:32.033Z,1000.62
2017-06-30T01:25:57.608Z,1000.58
2017-06-30T01:26:23.166Z,1000.61
2017-06-30T01:26:48.831Z,1000.56
2017-06-30T01:27:14.388Z,1000.58
2017-06-30T01:27:39.949Z,1000.6
2017-06-30T01:28:05.522Z,1000.6
2017-06-30T01:28:31.096Z,1000.59
2017-06-30T01:28:56.658Z,1000.59
2017-06-30T01:29:22.281Z,1000.58
2017-06-30T01:29:47.847Z,1000.58
2017-06-30T01:30:13.414Z,1000.55
2017-06-30T01:30:38.960Z,1000.57
2017-06-30T01:31:04.529Z,1000.63
2017-06-30T01:31:30.081Z,1000.63
2017-06-30T01:31:55.634Z,1000.59
2017-06-30T01:32:21.222Z,1000.63
2017-06-30T01:32:46.778Z,1000.58
2017-06-30T01:33:12.426Z,1000.63
2017-06-30T01:33:37.997Z,1000.66
2017-06-30T01:34:03.584Z,1000.65
2017-06-30T01:34:29.175Z,1000.62
2017-06-30T01:34:54.730Z,1000.61
2017-06-30T01:35:20.269Z,1000.63
2017-06-30T01:35:45.827Z,1000.58
2017-06-30T01:36:11.398Z,1000.65
2017-06-30T01:36:36.961Z,1000.6
2017-06-30T01:37:02.640Z,1000.58
2017-06-30T01:37:28.190Z,1000.6
2017-06-30T01:37:53.748Z,1000.57
2017-06-30T01:38:19.342Z,1000.55
2017-06-30T01:38:44.924Z,1000.56
2017-06-30T01:39:10.487Z,1000.57
2017-06-30T01:39:36.075Z,1000.56
2017-06-30T01:40:01.651Z,1000.51
2017-06-30T01:40:27.209Z,1000.53
2017-06-30T01:40:52.812Z,1000.53
2017-06-30T01:41:18.377Z,1000.51
2017-06-30T01:41:43.937Z,1000.51
2017-06-30T01:42:09.503Z,1000.5
2017-06-30T01:42:35.069Z,1000.51
2017-06-30T01:43:00.633Z,1000.44
2017-06-30T01:43:26.202Z,1000.5
2017-06-30T01:43:51.760Z,1000.48
2017-06-30T01:44:17.321Z,1000.5
2017-06-30T01:44:42.940Z,1000.49
2017-06-30T01:45:08.624Z,1000.52
2017-06-30T01:45:34.189Z,1000.46
2017-06-30T01:45:59.748Z,1000.46
2017-06-30T01:46:25.368Z,1000.48
2017-06-30T01:46:50.939Z,1000.44
2017-06-30T01:47:16.477Z,1000.45
2017-06-30T01:47:42.048Z,1000.44
2017-06-30T01:48:07.620Z,1000.43
2017-06-30T01:48:33.184Z,1000.41
2017-06-30T01:48:58.787Z,1000.44
2017-06-30T01:49:24.347Z,1000.48
2017-06-30T01:49:49.930Z,1000.43
2017-06-30T01:50:15.463Z,1000.46
2017-06-30T01:50:41.031Z,1000.43
2017-06-30T01:51:06.586Z,1000.45
2017-06-30T01:51:32.277Z,1000.45
2017-06-30T01:51:57.841Z,1000.45
2017-06-30T01:52:23.402Z,1000.46
2017-06-30T01:52:48.962Z,1000.43
2017-06-30T01:53:14.512Z,1000.44
2017-06-30T01:53:40.086Z,1000.41
2017-06-30T01:54:05.790Z,1000.42
2017-06-30T01:54:31.352Z,1000.45
2017-06-30T01:54:56.906Z,1000.46
2017-06-30T01:55:22.481Z,1000.46
2017-06-30T01:55:48.024Z,1000.46
2017-06-30T01:56:13.590Z,1000.46
2017-06-30T01:56:39.162Z,1000.43
2017-06-30T01:57:04.720Z,1000.45
2017-06-30T01:57:30.288Z,1000.48
2017-06-30T01:57:55.881Z,1000.44
2017-06-30T01:58:21.537Z,1000.46
2017-06-30T01:58:47.093Z,1000.51
2017-06-30T01:59:12.702Z,1000.45
2017-06-30T01:59:38.318Z,1000.48
2017-06-30T02:00:03.870Z,1000.48
2017-06-30T02:00:29.435Z,1000.49
2017-06-30T02:00:55.020Z,1000.47
2017-06-30T02:01:20.576Z,1000.47
2017-06-30T02:01:46.158Z,1000.47
2017-06-30T02:02:11.794Z,1000.52
2017-06-30T02:02:37.359Z,1000.54
2017-06-30T02:03:02.924Z,1000.53
2017-06-30T02:03:28.481Z,1000.56
2017-06-30T02:03:54.050Z,1000.57
2017-06-30T02:04:19.627Z,1000.54
2017-06-30T02:04:45.215Z,1000.52
2017-06-30T02:05:10.817Z,1000.55
2017-06-30T02:05:36.365Z,1000.57
2017-06-30T02:06:01.929Z,1000.61
2017-06-30T02:06:27.489Z,1000.57
2017-06-30T02:06:53.048Z,1000.57
2017-06-30T02:07:18.674Z,1000.6
2017-06-30T02:07:44.234Z,1000.63
2017-06-30T02:08:09.790Z,1000.63
2017-06-30T02:08:35.362Z,1000.6
2017-06-30T02:09:01.001Z,1000.65
2017-06-30T02:09:26.571Z,1000.63
2017-06-30T02:09:52.127Z,1000.6
2017-06-30T02:10:17.691Z,1000.66
2017-06-30T02:10:43.254Z,1000.64
2017-06-30T02:11:08.817Z,1000.69
2017-06-30T02:11:34.431Z,1000.69
2017-06-30T02:11:59.984Z,1000.65
2017-06-30T02:12:25.552Z,1000.64
2017-06-30T02:12:51.121Z,1000.65
2017-06-30T02:13:16.688Z,1000.64
2017-06-30T02:13:42.256Z,1000.69
2017-06-30T02:14:07.850Z,1000.67
2017-06-30T02:14:33.428Z,1000.7
2017-06-30T02:14:59.033Z,1000.67
2017-06-30T02:15:24.579Z,1000.71
2017-06-30T02:15:50.132Z,1000.67
2017-06-30T02:16:15.695Z,1000.71
2017-06-30T02:16:41.240Z,1000.7
2017-06-30T02:17:06.808Z,1000.67
2017-06-30T02:17:32.456Z,1000.69
2017-06-30T02:17:58.030Z,1000.71
2017-06-30T02:18:23.594Z,1000.7
2017-06-30T02:18:49.146Z,1000.73
2017-06-30T02:19:14.699Z,1000.66
2017-06-30T02:19:40.254Z,1000.69
2017-06-30T02:20:05.929Z,1000.7
2017-06-30T02:20:31.581Z,1000.69
2017-06-30T02:20:57.134Z,1000.72
2017-06-30T02:21:22.700Z,1000.68
2017-06-30T02:21:48.321Z,1000.67
2017-06-30T02:22:13.872Z,1000.65
2017-06-30T02:22:39.462Z,1000.69
2017-06-30T02:23:05.070Z,1000.68
2017-06-30T02:23:30.636Z,1000.7
2017-06-30T02:23:56.217Z,1000.65
2017-06-30T02:24:21.768Z,1000.67
2017-06-30T02:24:47.335Z,1000.68
2017-06-30T02:25:12.895Z,1000.68
2017-06-30T02:25:38.446Z,1000.7
2017-06-30T02:26:04.140Z,1000.67
2017-06-30T02:26:29.710Z,1000.72
2017-06-30T02:26:55.255Z,1000.69
2017-06-30T02:27:20.820Z,1000.69
2017-06-30T02:27:46.373Z,1000.69
2017-06-30T02:28:11.928Z,1000.67
2017-06-30T02:28:37.588Z,1000.73
2017-06-30T02:29:03.152Z,1000.67
2017-06-30T02:29:28.706Z,1000.68
2017-06-30T02:29:54.285Z,1000.71
2017-06-30T02:30:19.825Z,1000.68
2017-06-30T02:30:45.399Z,1000.68
2017-06-30T02:31:10.975Z,1000.68
2017-06-30T02:31:36.536Z,1000.68
2017-06-30T02:32:02.182Z,1000.67
2017-06-30T02:32:27.737Z,1000.67
2017-06-30T02:32:53.330Z,1000.69
2017-06-30T02:33:18.906Z,1000.65
2017-06-30T02:33:44.468Z,1000.66
2017-06-30T02:34:10.037Z,1000.63
2017-06-30T02:34:35.608Z,1000.63
2017-06-30T02:35:01.271Z,1000.63
2017-06-30T02:35:26.839Z,1000.62
2017-06-30T02:35:52.419Z,1000.6
2017-06-30T02:36:17.988Z,1000.57
2017-06-30T02:36:43.558Z,1000.59
2017-06-30T02:37:09.130Z,1000.59
2017-06-30T02:37:34.723Z,1000.57
2017-06-30T02:38:00.267Z,1000.55
2017-06-30T02:38:25.829Z,1000.55
2017-06-30T02:38:51.399Z,1000.53
2017-06-30T02:39:16.954Z,1000.56
2017-06-30T02:39:42.498Z,1000.6
2017-06-30T02:40:08.050Z,1000.55
2017-06-30T02:40:33.611Z,1000.59
2017-06-30T02:40:59.177Z,1000.58
2017-06-30T02:41:24.738Z,1000.57
2017-06-30T02:41:50.340Z,1000.6
2017-06-30T02:42:15.909Z,1000.6
2017-06-30T02:42:41.489Z,1000.62
2017-06-30T02:43:07.063Z,1000.6
2017-06-30T02:43:32.618Z,1000.61
2017-06-30T02:43:58.202Z,1000.59
2017-06-30T02:44:23.758Z,1000.58
2017-06-30T02:44:49.370Z,1000.57
2017-06-30T02:45:14.938Z,1000.61
2017-06-30T02:45:40.534Z,1000.61
2017-06-30T02:46:06.097Z,1000.64
2017-06-30T02:46:31.717Z,1000.61
2017-06-30T02:46:57.344Z,1000.62
2017-06-30T02:47:22.906Z,1000.58
2017-06-30T02:47:48.477Z,1000.62
2017-06-30T02:48:14.034Z,1000.59
2017-06-30T02:48:39.588Z,1000.61
2017-06-30T02:49:05.146Z,1000.63
2017-06-30T02:49:30.700Z,1000.64
2017-06-30T02:49:56.298Z,1000.63
2017-06-30T02:50:21.890Z,1000.63
2017-06-30T02:50:47.458Z,1000.56
2017-06-30T02:51:13.011Z,1000.57
2017-06-30T02:51:38.723Z,1000.6
2017-06-30T02:52:04.339Z,1000.58
2017-06-30T02:52:29.907Z,1000.58
2017-06-30T02:52:55.476Z,1000.58
2017-06-30T02:53:21.150Z,1000.56
2017-06-30T02:53:46.736Z,1000.57
2017-06-30T02:54:12.283Z,1000.6
2017-06-30T02:54:37.884Z,1000.57
2017-06-30T02:55:03.450Z,1000.56
2017-06-30T02:55:29.018Z,1000.57
2017-06-30T02:55:54.582Z,1000.57
2017-06-30T02:56:20.141Z,1000.57
2017-06-30T02:56:45.707Z,1000.55
2017-06-30T02:57:11.301Z,1000.54
2017-06-30T02:57:36.860Z,1000.53
2017-06-30T02:58:02.424Z,1000.54
2017-06-30T02:58:27.995Z,1000.59
2017-06-30T02:58:53.580Z,1000.56
2017-06-30T02:59:19.130Z,1000.57
2017-06-30T02:59:44.688Z,1000.6
2017-06-30T03:00:10.239Z,1000.6
2017-06-30T03:00:35.809Z,1000.57
2017-06-30T03:01:01.377Z,1000.6
2017-06-30T03:01:26.987Z,1000.57
2017-06-30T03:01:52.613Z,1000.58
2017-06-30T03:02:18.238Z,1000.56
2017-06-30T03:02:43.802Z,1000.58
2017-06-30T03:03:09.371Z,1000.55
2017-06-30T03:03:34.932Z,1000.59
2017-06-30T03:04:00.484Z,1000.63
2017-06-30T03:04:26.056Z,1000.56
2017-06-30T03:04:51.620Z,1000.56
2017-06-30T03:05:17.252Z,1000.58
2017-06-30T03:06:16.450Z,1000.53
2017-06-30T03:09:45.311Z,1000.55
2017-06-30T03:10:18.886Z,1000.52
2017-06-30T03:10:44.442Z,1000.54
2017-06-30T03:11:10.004Z,1000.54
2017-06-30T03:11:35.561Z,1000.52
2017-06-30T03:12:01.107Z,1000.49
2017-06-30T03:12:26.762Z,1000.51
2017-06-30T03:12:52.319Z,1000.49
2017-06-30T03:13:17.885Z,1000.5
2017-06-30T03:13:43.459Z,1000.52
2017-06-30T03:14:09.026Z,1000.52
2017-06-30T03:14:34.581Z,1000.55
2017-06-30T03:15:00.226Z,1000.55
2017-06-30T03:15:25.843Z,1000.52
2017-06-30T03:15:51.408Z,1000.51
2017-06-30T03:16:17.028Z,1000.52
2017-06-30T03:16:42.596Z,1000.53
2017-06-30T03:17:08.258Z,1000.55
2017-06-30T03:17:33.827Z,1000.51
2017-06-30T03:17:59.433Z,1000.53
2017-06-30T03:18:25.102Z,1000.51
2017-06-30T03:18:50.645Z,1000.52
2017-06-30T03:19:16.206Z,1000.52
2017-06-30T03:19:41.770Z,1000.5
2017-06-30T03:20:07.330Z,1000.53
2017-06-30T03:20:32.900Z,1000.53
2017-06-30T03:20:58.462Z,1000.55
2017-06-30T03:21:24.031Z,1000.51
2017-06-30T03:21:49.587Z,1000.53
2017-06-30T03:22:15.145Z,1000.52
2017-06-30T03:22:40.695Z,1000.5
2017-06-30T03:23:06.323Z,1000.51
2017-06-30T03:23:31.893Z,1000.51
2017-06-30T03:23:57.458Z,1000.53
2017-06-30T03:24:23.025Z,1000.51
2017-06-30T03:24:48.597Z,1000.51
2017-06-30T03:25:14.172Z,1000.48
2017-06-30T03:25:39.747Z,1000.47
2017-06-30T03:26:05.318Z,1000.51
2017-06-30T03:26:30.888Z,1000.48
2017-06-30T03:26:56.486Z,1000.47
2017-06-30T03:27:22.172Z,1000.46
2017-06-30T03:27:47.776Z,1000.45
2017-06-30T03:28:13.342Z,1000.47
2017-06-30T03:28:38.916Z,1000.48
2017-06-30T03:29:04.482Z,1000.46
2017-06-30T03:29:30.034Z,1000.45
2017-06-30T03:29:55.581Z,1000.45
2017-06-30T03:30:21.139Z,1000.43
2017-06-30T03:30:46.700Z,1000.46
2017-06-30T03:31:12.356Z,1000.43
2017-06-30T03:31:37.932Z,1000.48
2017-06-30T03:32:03.496Z,1000.44
2017-06-30T03:32:29.057Z,1000.46
2017-06-30T03:32:54.615Z,1000.46
2017-06-30T03:33:20.172Z,1000.48
2017-06-30T03:33:45.723Z,1000.43
2017-06-30T03:34:11.301Z,1000.43
2017-06-30T03:34:36.870Z,1000.43
2017-06-30T03:35:02.439Z,1000.41
2017-06-30T03:35:28.001Z,1000.46
2017-06-30T03:35:53.572Z,1000.45
2017-06-30T03:36:19.149Z,1000.47
2017-06-30T03:36:44.703Z,1000.47
2017-06-30T03:37:10.268Z,1000.45
2017-06-30T03:37:35.818Z,1000.45
2017-06-30T03:38:01.366Z,1000.47
2017-06-30T03:38:26.973Z,1000.45
2017-06-30T03:38:52.688Z,1000.41
2017-06-30T03:39:18.285Z,1000.43
2017-06-30T03:39:43.870Z,1000.45
2017-06-30T03:40:09.442Z,1000.42
2017-06-30T03:40:35.021Z,1000.45
2017-06-30T03:41:00.578Z,1000.46
2017-06-30T03:41:26.146Z,1000.42
2017-06-30T03:41:51.715Z,1000.48
2017-06-30T03:42:17.272Z,1000.44
2017-06-30T03:42:42.857Z,1000.48
2017-06-30T03:43:08.570Z,1000.43
2017-06-30T03:43:34.134Z,1000.43
2017-06-30T03:43:59.688Z,1000.43
2017-06-30T03:44:25.271Z,1000.41
2017-06-30T03:44:50.847Z,1000.43
2017-06-30T03:45:16.398Z,1000.42
2017-06-30T03:45:41.990Z,1000.42
2017-06-30T03:46:07.590Z,1000.42
2017-06-30T03:46:33.140Z,1000.41
2017-06-30T03:46:58.729Z,1000.43
2017-06-30T03:47:24.452Z,1000.43
2017-06-30T03:47:49.968Z,1000.41
2017-06-30T03:48:15.520Z,1000.42
2017-06-30T03:48:41.097Z,1000.42
2017-06-30T03:49:06.664Z,1000.4
2017-06-30T03:49:32.231Z,1000.43
2017-06-30T03:49:57.787Z,1000.42
2017-06-30T03:50:23.347Z,1000.39
2017-06-30T03:50:48.908Z,1000.42
2017-06-30T03:51:14.582Z,1000.39
2017-06-30T03:51:40.148Z,1000.44
2017-06-30T03:52:05.726Z,1000.36
2017-06-30T03:52:31.287Z,1000.31
2017-06-30T03:52:56.841Z,1000.36
2017-06-30T03:53:22.400Z,1000.4
2017-06-30T03:53:47.980Z,1000.41
2017-06-30T03:54:13.549Z,1000.41
2017-06-30T03:54:39.124Z,1000.43
2017-06-30T03:55:04.690Z,1000.41
2017-06-30T03:55:30.230Z,1000.39
2017-06-30T03:55:55.778Z,1000.41
2017-06-30T03:56:21.409Z,1000.4
2017-06-30T03:56:46.986Z,1000.39
2017-06-30T03:57:12.552Z,1000.41
2017-06-30T03:57:38.108Z,1000.35
2017-06-30T03:58:03.667Z,1000.34
2017-06-30T03:58:29.247Z,1000.31
2017-06-30T03:58:54.819Z,1000.35
2017-06-30T03:59:20.379Z,1000.39
2017-06-30T03:59:45.993Z,1000.36
2017-06-30T04:00:11.630Z,1000.39
2017-06-30T04:00:37.189Z,1000.33
2017-06-30T04:01:02.734Z,1000.37
2017-06-30T04:01:28.298Z,1000.35
2017-06-30T04:01:53.868Z,1000.32
2017-06-30T04:02:19.432Z,1000.38
2017-06-30T04:02:44.997Z,1000.35
2017-06-30T04:03:10.551Z,1000.33
2017-06-30T04:03:36.102Z,1000.33
2017-06-30T04:04:01.670Z,1000.38
2017-06-30T04:04:27.237Z,1000.37
2017-06-30T04:04:52.844Z,1000.35
2017-06-30T04:05:18.482Z,1000.42
2017-06-30T04:05:44.056Z,1000.41
2017-06-30T04:06:09.607Z,1000.33
2017-06-30T04:06:35.181Z,1000.38
2017-06-30T04:07:00.768Z,1000.38
2017-06-30T04:07:26.335Z,1000.4
2017-06-30T04:07:51.894Z,1000.38
2017-06-30T04:08:17.462Z,1000.37
2017-06-30T04:08:43.055Z,1000.39
2017-06-30T04:09:08.694Z,1000.41
2017-06-30T04:09:34.250Z,1000.38
2017-06-30T04:09:59.824Z,1000.42
2017-06-30T04:10:25.383Z,1000.38
2017-06-30T04:10:50.980Z,1000.42
2017-06-30T04:11:16.552Z,1000.45
2017-06-30T04:11:42.104Z,1000.43
2017-06-30T04:12:07.672Z,1000.43
2017-06-30T04:12:33.231Z,1000.42
2017-06-30T04:12:58.808Z,1000.45
2017-06-30T04:13:24.367Z,1000.43
2017-06-30T04:13:49.928Z,1000.44
2017-06-30T04:14:15.513Z,1000.43
2017-06-30T04:14:41.086Z,1000.39
2017-06-30T04:15:06.651Z,1000.45
2017-06-30T04:15:32.215Z,1000.42
2017-06-30T04:15:57.950Z,1000.39
2017-06-30T04:16:23.511Z,1000.42
2017-06-30T04:16:49.090Z,1000.41
2017-06-30T04:17:14.669Z,1000.41
2017-06-30T04:17:40.245Z,1000.45
2017-06-30T04:18:05.798Z,1000.43
2017-06-30T04:18:31.440Z,1000.4
2017-06-30T04:18:57.050Z,1000.43
2017-06-30T04:19:22.620Z,1000.46
2017-06-30T04:19:48.189Z,1000.43
2017-06-30T04:20:13.768Z,1000.43
2017-06-30T04:20:39.345Z,1000.47
2017-06-30T04:21:04.913Z,1000.48
2017-06-30T04:21:30.531Z,1000.43
2017-06-30T04:21:56.083Z,1000.48
2017-06-30T04:22:21.661Z,1000.44
2017-06-30T04:22:47.213Z,1000.48
2017-06-30T04:23:12.783Z,1000.46
2017-06-30T04:23:38.355Z,1000.47
2017-06-30T04:24:03.963Z,1000.47
2017-06-30T04:24:29.521Z,1000.46
2017-06-30T04:24:55.084Z,1000.52
2017-06-30T04:25:20.647Z,1000.49
2017-06-30T04:25:46.206Z,1000.48
2017-06-30T04:26:11.791Z,1000.52
2017-06-30T04:26:37.374Z,1000.51
2017-06-30T04:27:02.931Z,1000.47
2017-06-30T04:27:28.502Z,1000.54
2017-06-30T04:27:54.066Z,1000.55
2017-06-30T04:28:19.635Z,1000.54
2017-06-30T04:28:45.203Z,1000.54
2017-06-30T04:29:10.835Z,1000.56
2017-06-30T04:29:36.393Z,1000.55
2017-06-30T04:30:01.959Z,1000.55
2017-06-30T04:30:27.538Z,1000.54
2017-06-30T04:30:53.101Z,1000.52
2017-06-30T04:31:18.664Z,1000.54
2017-06-30T04:31:44.237Z,1000.54
2017-06-30T04:32:09.786Z,1000.58
2017-06-30T04:32:35.356Z,1000.57
2017-06-30T04:33:00.963Z,1000.55
2017-06-30T04:33:26.528Z,1000.58
2017-06-30T04:33:52.142Z,1000.58
2017-06-30T04:34:17.788Z,1000.58
2017-06-30T04:34:43.350Z,1000.57
2017-06-30T04:35:08.928Z,1000.61
2017-06-30T04:35:34.493Z,1000.59
2017-06-30T04:36:00.071Z,1000.59
2017-06-30T04:36:25.634Z,1000.6
2017-06-30T04:36:51.231Z,1000.58
2017-06-30T04:37:16.785Z,1000.61
2017-06-30T04:37:42.346Z,1000.67
2017-06-30T04:38:07.922Z,1000.66
2017-06-30T04:38:33.524Z,1000.6
2017-06-30T04:38:59.090Z,1000.62
2017-06-30T04:39:24.638Z,1000.64
2017-06-30T04:39:50.230Z,1000.65
2017-06-30T04:40:15.796Z,1000.66
2017-06-30T04:40:41.346Z,1000.66
2017-06-30T04:41:06.920Z,1000.63
2017-06-30T04:41:32.476Z,1000.69
2017-06-30T04:41:58.037Z,1000.69
2017-06-30T04:42:23.632Z,1000.68
2017-06-30T04:42:49.189Z,1000.66
2017-06-30T04:43:14.876Z,1000.71
2017-06-30T04:43:40.434Z,1000.71
2017-06-30T04:44:06.001Z,1000.71
2017-06-30T04:44:31.563Z,1000.68
2017-06-30T04:44:57.120Z,1000.69
2017-06-30T04:45:22.680Z,1000.67
2017-06-30T04:45:48.302Z,1000.72
2017-06-30T04:46:13.869Z,1000.73
2017-06-30T04:46:39.426Z,1000.73
2017-06-30T04:47:04.966Z,1000.73
2017-06-30T04:47:30.605Z,1000.72
2017-06-30T04:47:56.167Z,1000.76
2017-06-30T04:48:21.831Z,1000.71
2017-06-30T04:48:47.489Z,1000.75
2017-06-30T04:49:13.070Z,1000.72
2017-06-30T04:49:38.630Z,1000.77
2017-06-30T04:50:04.188Z,1000.75
2017-06-30T04:50:29.784Z,1000.77
2017-06-30T04:50:55.348Z,1000.74
2017-06-30T04:51:20.912Z,1000.8
2017-06-30T04:51:46.463Z,1000.73
2017-06-30T04:52:12.037Z,1000.78
2017-06-30T04:52:37.586Z,1000.78
2017-06-30T04:53:03.225Z,1000.75
2017-06-30T04:53:28.802Z,1000.78
2017-06-30T04:53:54.379Z,1000.76
2017-06-30T04:54:19.946Z,1000.8
2017-06-30T04:54:45.514Z,1000.79
2017-06-30T04:55:11.082Z,1000.79
2017-06-30T04:55:36.697Z,1000.81
2017-06-30T04:56:02.252Z,1000.78
2017-06-30T04:56:27.863Z,1000.81
2017-06-30T04:56:53.477Z,1000.78
2017-06-30T04:57:19.029Z,1000.81
2017-06-30T04:57:44.564Z,1000.82
2017-06-30T04:58:10.117Z,1000.82
2017-06-30T04:58:35.666Z,1000.82
2017-06-30T04:59:01.231Z,1000.83
2017-06-30T04:59:26.822Z,1000.82
2017-06-30T04:59:52.394Z,1000.82
2017-06-30T05:00:17.968Z,1000.81
2017-06-30T05:00:43.638Z,1000.83
2017-06-30T05:01:09.232Z,1000.83
2017-06-30T05:01:34.774Z,1000.82
2017-06-30T05:02:00.333Z,1000.85
2017-06-30T05:02:25.913Z,1000.83
2017-06-30T05:02:51.470Z,1000.82
2017-06-30T05:03:17.031Z,1000.84
2017-06-30T05:03:42.608Z,1000.85
2017-06-30T05:04:08.210Z,1000.85
2017-06-30T05:04:33.784Z,1000.85
2017-06-30T05:04:59.361Z,1000.86
2017-06-30T05:05:24.919Z,1000.89
2017-06-30T05:05:50.474Z,1000.87
2017-06-30T05:06:16.045Z,1000.86
2017-06-30T05:06:41.609Z,1000.89
2017-06-30T05:07:07.218Z,1000.91
2017-06-30T05:07:32.776Z,1000.9
2017-06-30T05:07:58.392Z,1000.91
2017-06-30T05:08:23.954Z,1000.92
2017-06-30T05:08:49.522Z,1000.88
2017-06-30T05:09:15.092Z,1000.91
2017-06-30T05:09:40.649Z,1000.91
2017-06-30T05:10:06.223Z,1000.91
2017-06-30T05:10:31.787Z,1000.93
2017-06-30T05:10:57.356Z,1000.93
2017-06-30T05:11:22.928Z,1000.86
2017-06-30T05:11:48.508Z,1000.92
2017-06-30T05:12:14.059Z,1000.96
2017-06-30T05:12:39.648Z,1000.92
2017-06-30T05:13:05.213Z,1000.87
2017-06-30T05:13:30.867Z,1000.93
2017-06-30T05:13:56.497Z,1000.97
2017-06-30T05:14:22.023Z,1000.89
2017-06-30T05:14:47.579Z,1000.96
2017-06-30T05:15:13.269Z,1000.91
2017-06-30T05:15:38.833Z,1000.93
2017-06-30T05:16:04.399Z,1000.95
2017-06-30T05:16:29.955Z,1000.94
2017-06-30T05:16:55.516Z,1000.91
2017-06-30T05:17:21.066Z,1000.93
2017-06-30T05:17:46.715Z,1000.95